Time;durP1;ratioP1;P1;durP2;ratioP2;P2;SDS_P1;SDS_P2;PMS_P1;PMS_P2;Temp;Humidity;BMP_temperature;BMP_pressure;BME280_temperature;BME280_humidity;BME280_pressure;Samples;Min_cycle;Max_cycle;Signal;HPM_P1;HPM_P2
2022/08/15 06:31:19;;;;;;;1.17;0.30;;;15.50;98.90;;;;;;4786537;23;20065;-73
2022/08/15 06:34:02;;;;;;;1.10;0.30;;;15.50;98.70;;;;;;4956440;28;20107;-71
2022/08/15 06:37:12;;;;;;;1.17;0.25;;;15.40;97.90;;;;;;4955109;29;20030;-73
2022/08/15 06:40:01;;;;;;;0.73;0.43;;;15.30;98.10;;;;;;4956029;28;20027;-72
2022/08/15 06:42:42;;;;;;;1.17;0.40;;;15.30;97.90;;;;;;4956964;28;20038;-72
2022/08/15 06:45:31;;;;;;;1.52;0.40;;;15.20;98.30;;;;;;4956692;28;20078;-72
2022/08/15 06:48:07;;;;;;;0.85;0.28;;;15.20;98.10;;;;;;4956013;28;20035;-72
2022/08/15 06:50:55;;;;;;;1.80;0.28;;;15.10;98.10;;;;;;4956186;28;20016;-73
2022/08/15 06:53:29;;;;;;;0.68;0.20;;;15.00;98.90;;;;;;4954643;29;20031;-73
2022/08/15 06:56:06;;;;;;;0.77;0.28;;;15.00;98.60;;;;;;4954616;29;20031;-72
2022/08/15 06:58:34;;;;;;;0.47;0.20;;;15.00;98.70;;;;;;4954513;29;20146;-72
2022/08/15 07:01:14;;;;;;;1.05;0.20;;;14.90;98.70;;;;;;4956194;28;20479;-72
2022/08/15 07:04:03;;;;;;;0.55;0.28;;;14.80;98.70;;;;;;4955736;28;20036;-71
2022/08/15 07:06:50;;;;;;;0.70;0.20;;;14.80;98.90;;;;;;4955975;28;20102;-72
2022/08/15 07:09:20;;;;;;;0.88;0.40;;;14.70;99.20;;;;;;4956185;28;20027;-73
2022/08/15 07:11:59;;;;;;;1.77;0.30;;;14.70;99.20;;;;;;4956343;28;20024;-73
2022/08/15 07:14:52;;;;;;;0.57;0.20;;;14.60;99.70;;;;;;4956287;28;20023;-73
2022/08/15 07:17:49;;;;;;;0.38;0.20;;;14.50;99.90;;;;;;4954738;29;20030;-74
2022/08/15 07:20:18;;;;;;;0.35;0.20;;;14.40;99.90;;;;;;4953391;29;20039;-75
2022/08/15 07:22:45;;;;;;;0.63;0.30;;;14.30;99.90;;;;;;4956631;28;20031;-74
2022/08/15 07:25:18;;;;;;;0.82;0.50;;;14.30;99.90;;;;;;4956293;28;20059;-75
2022/08/15 07:28:05;;;;;;;0.93;0.30;;;14.20;99.90;;;;;;4954522;29;20027;-74
2022/08/15 07:31:03;;;;;;;0.90;0.30;;;14.20;99.90;;;;;;4955607;28;20059;-72
2022/08/15 07:33:32;;;;;;;1.67;0.35;;;14.10;99.90;;;;;;4955829;28;20090;-75
2022/08/15 07:36:05;;;;;;;1.23;0.40;;;14.10;99.90;;;;;;4955821;28;20100;-74
2022/08/15 07:38:33;;;;;;;0.90;0.20;;;14.00;99.90;;;;;;4955937;28;20031;-74
2022/08/15 07:41:30;;;;;;;0.30;0.20;;;14.00;99.90;;;;;;4953882;28;20031;-74
2022/08/15 07:44:01;;;;;;;0.75;0.40;;;13.90;99.90;;;;;;4946746;29;20038;-74
2022/08/15 07:46:44;;;;;;;1.25;0.40;;;13.90;99.90;;;;;;4953955;29;20023;-74
2022/08/15 07:49:23;;;;;;;1.05;0.40;;;13.90;99.90;;;;;;4955531;28;20472;-74
2022/08/15 07:51:58;;;;;;;1.50;0.70;;;13.90;99.90;;;;;;4955235;28;20472;-72
2022/08/15 07:54:51;;;;;;;1.95;0.30;;;13.80;99.90;;;;;;4953865;29;20114;-74
2022/08/15 07:57:28;;;;;;;1.02;0.40;;;13.80;99.90;;;;;;4955051;28;20108;-72
2022/08/15 08:00:11;;;;;;;1.45;0.50;;;13.80;99.90;;;;;;4955159;28;20023;-74
2022/08/15 08:03:00;;;;;;;1.48;0.38;;;13.70;99.90;;;;;;4955496;28;20034;-73
2022/08/15 08:05:45;;;;;;;2.88;0.50;;;13.70;99.90;;;;;;4955369;28;20028;-75
2022/08/15 08:08:13;;;;;;;1.05;0.47;;;13.70;99.90;;;;;;4955244;28;20483;-78
2022/08/15 08:11:12;;;;;;;4.30;0.60;;;13.70;99.90;;;;;;4955656;28;20495;-76
2022/08/15 08:13:51;;;;;;;1.58;0.40;;;13.60;99.90;;;;;;4954089;29;20031;-76
2022/08/15 08:16:28;;;;;;;0.60;0.40;;;13.50;99.90;;;;;;4953887;29;20040;-74
2022/08/15 08:19:04;;;;;;;2.97;0.52;;;13.50;99.90;;;;;;4953902;29;20059;-75
2022/08/15 08:21:57;;;;;;;1.92;0.50;;;13.40;99.90;;;;;;4954200;29;20541;-75
2022/08/15 08:24:43;;;;;;;1.63;0.45;;;13.40;99.90;;;;;;4954983;29;20027;-75
2022/08/15 08:27:17;;;;;;;1.33;0.60;;;13.30;99.90;;;;;;4953690;29;20031;-75
2022/08/15 08:30:13;;;;;;;2.60;0.70;;;13.20;99.90;;;;;;4955278;28;20039;-75
2022/08/15 08:32:58;;;;;;;0.50;0.50;;;13.30;99.90;;;;;;4955109;28;20023;-75
2022/08/15 08:35:44;;;;;;;0.93;0.57;;;13.20;99.90;;;;;;4954776;28;20019;-75
2022/08/15 08:38:25;;;;;;;1.10;0.57;;;13.20;99.90;;;;;;4954860;28;20498;-74
2022/08/15 08:41:28;;;;;;;2.65;0.95;;;13.20;99.90;;;;;;4953661;29;20031;-74
2022/08/15 08:44:23;;;;;;;2.08;0.88;;;13.20;99.90;;;;;;4955125;28;20110;-74
2022/08/15 08:47:11;;;;;;;2.03;0.75;;;13.20;99.90;;;;;;4955169;29;20086;-74
2022/08/15 08:50:02;;;;;;;2.72;0.82;;;13.20;99.90;;;;;;4954950;28;20027;-74
2022/08/15 08:52:33;;;;;;;2.13;0.70;;;13.10;99.90;;;;;;4955233;28;20020;-74
2022/08/15 08:55:06;;;;;;;2.90;0.90;;;13.10;99.90;;;;;;4958364;28;20052;-74
2022/08/15 08:57:43;;;;;;;2.03;0.52;;;13.10;99.90;;;;;;4956995;29;20407;-75
2022/08/15 09:00:22;;;;;;;1.27;0.63;;;13.10;99.90;;;;;;4956898;29;20032;-73
2022/08/15 09:03:00;;;;;;;0.85;0.70;;;13.00;99.90;;;;;;4958229;28;20491;-75
2022/08/15 09:05:52;;;;;;;1.23;0.60;;;12.90;99.90;;;;;;4956934;29;20395;-74
2022/08/15 09:08:24;;;;;;;1.63;0.60;;;12.90;99.90;;;;;;4958619;28;20031;-74
2022/08/15 09:10:56;;;;;;;1.35;0.70;;;12.90;99.90;;;;;;4958464;28;20026;-75
2022/08/15 09:13:33;;;;;;;0.95;0.65;;;12.90;99.90;;;;;;4958294;28;20527;-75
2022/08/15 09:16:11;;;;;;;1.30;0.70;;;12.80;99.90;;;;;;4956640;29;20043;-74
2022/08/15 09:18:48;;;;;;;1.27;0.57;;;12.80;99.90;;;;;;4956707;29;20030;-73
2022/08/15 09:21:17;;;;;;;1.35;0.50;;;12.70;99.90;;;;;;4956800;29;20035;-73
2022/08/15 09:23:47;;;;;;;0.60;0.45;;;12.80;99.90;;;;;;4957976;28;20038;-73
2022/08/15 09:26:27;;;;;;;0.95;0.50;;;12.80;99.90;;;;;;4956325;29;20028;-72
2022/08/15 09:29:08;;;;;;;0.77;0.52;;;12.70;99.90;;;;;;4958211;28;20104;-74
2022/08/15 09:31:37;;;;;;;;;;;12.60;99.90;;;;;;4958104;28;20047;-74
2022/08/15 09:34:33;;;;;;;1.67;0.82;;;12.60;99.90;;;;;;4956443;29;19906;-71
2022/08/15 09:37:09;;;;;;;1.85;0.70;;;12.50;99.90;;;;;;4930340;28;20035;-75
2022/08/15 09:39:42;;;;;;;2.00;0.80;;;12.50;99.90;;;;;;4956255;29;20024;-75
2022/08/15 09:42:39;;;;;;;1.15;0.80;;;12.50;99.90;;;;;;4957712;28;20027;-75
2022/08/15 09:45:24;;;;;;;1.80;1.10;;;12.40;99.90;;;;;;4957112;29;20081;-75
2022/08/15 09:48:23;;;;;;;2.58;1.23;;;12.30;99.90;;;;;;4957763;28;20062;-76
2022/08/15 09:51:14;;;;;;;2.30;1.10;;;12.30;99.90;;;;;;4957918;28;20027;-77
2022/08/15 09:54:06;;;;;;;2.15;1.25;;;12.30;99.90;;;;;;4958334;28;20423;-73
2022/08/15 09:56:37;;;;;;;2.20;1.35;;;12.20;99.90;;;;;;4958102;29;20086;-75
2022/08/15 09:59:11;;;;;;;2.10;1.48;;;12.20;99.90;;;;;;4957798;28;20028;-75
2022/08/15 10:02:09;;;;;;;1.95;1.17;;;12.20;99.90;;;;;;4956090;29;20452;-74
2022/08/15 10:04:49;;;;;;;2.05;1.30;;;12.10;99.90;;;;;;4955971;28;20031;-75
2022/08/15 10:07:16;;;;;;;1.30;1.02;;;12.00;99.90;;;;;;4957517;28;20432;-75
2022/08/15 10:10:03;;;;;;;1.88;1.20;;;12.00;99.90;;;;;;4957489;28;20020;-74
2022/08/15 10:12:37;;;;;;;2.20;1.33;;;11.90;99.90;;;;;;4957122;28;20495;-75
2022/08/15 10:15:25;;;;;;;3.33;1.35;;;11.90;99.90;;;;;;4957268;28;20070;-74
2022/08/15 10:17:53;;;;;;;2.83;1.27;;;11.80;99.90;;;;;;4957877;28;20023;-75
2022/08/15 10:20:22;;;;;;;2.67;1.50;;;11.70;99.90;;;;;;4957058;28;20027;-74
2022/08/15 10:22:57;;;;;;;2.10;1.55;;;11.60;99.90;;;;;;4956706;28;20098;-74
2022/08/15 10:25:30;;;;;;;1.73;1.33;;;11.60;99.90;;;;;;4955736;29;20382;-73
2022/08/15 10:28:06;;;;;;;1.48;1.20;;;11.50;99.90;;;;;;4955772;29;20039;-74
2022/08/15 10:30:46;;;;;;;3.15;1.70;;;11.40;99.90;;;;;;4956497;28;20047;-73
2022/08/15 10:33:34;;;;;;;1.73;1.20;;;11.40;99.90;;;;;;4957126;28;20026;-75
2022/08/15 10:36:13;;;;;;;3.85;1.38;;;11.40;99.90;;;;;;4957144;28;20102;-76
2022/08/15 10:39:00;;;;;;;3.55;1.45;;;11.30;99.90;;;;;;4956687;28;20090;-73
2022/08/15 10:42:08;;;;;;;2.05;1.33;;;11.30;99.90;;;;;;4956650;28;20372;-73
2022/08/15 10:44:49;;;;;;;2.58;1.20;;;11.20;99.90;;;;;;4956663;28;20027;-73
2022/08/15 10:47:37;;;;;;;2.03;1.50;;;11.20;99.90;;;;;;4954841;29;20037;-73
2022/08/15 10:50:20;;;;;;;2.25;1.42;;;11.10;99.90;;;;;;4956266;28;20102;-73
2022/08/15 10:53:35;;;;;;;2.83;1.40;;;11.10;99.90;;;;;;4954878;29;20061;-73
2022/08/15 10:56:31;;;;;;;2.47;1.10;;;11.10;99.90;;;;;;4956193;29;20078;-73
2022/08/15 10:59:20;;;;;;;2.05;1.35;;;11.10;99.90;;;;;;4956133;28;20023;-73
2022/08/15 11:01:49;;;;;;;1.70;1.23;;;11.00;99.90;;;;;;4954683;29;20116;-73
2022/08/15 11:04:29;;;;;;;1.73;0.85;;;10.90;99.90;;;;;;4956064;28;20411;-73
2022/08/15 11:06:56;;;;;;;1.00;0.70;;;10.90;99.90;;;;;;4954735;29;20031;-74
2022/08/15 11:09:24;;;;;;;1.23;0.70;;;10.90;99.90;;;;;;4956088;28;20391;-73
2022/08/15 11:12:05;;;;;;;1.48;0.70;;;10.80;99.90;;;;;;4954699;29;20027;-73
2022/08/15 11:14:39;;;;;;;1.20;0.60;;;10.80;99.90;;;;;;4954889;29;20396;-74
2022/08/15 11:17:18;;;;;;;1.42;0.77;;;10.80;99.90;;;;;;4955544;28;20058;-73
2022/08/15 11:19:49;;;;;;;1.67;0.90;;;10.70;99.90;;;;;;4955860;28;20022;-73
2022/08/15 11:22:30;;;;;;;1.27;0.80;;;10.60;99.90;;;;;;4955804;28;20023;-72
2022/08/15 11:25:06;;;;;;;1.25;0.70;;;10.60;99.90;;;;;;4955872;28;20019;-73
2022/08/15 11:27:34;;;;;;;0.88;0.80;;;10.50;99.90;;;;;;4938463;29;20039;-73
2022/08/15 11:30:03;;;;;;;1.10;0.70;;;10.50;99.90;;;;;;4954260;28;20058;-73
2022/08/15 11:32:34;;;;;;;1.23;0.90;;;10.50;99.90;;;;;;4955770;28;20016;-74
2022/08/15 11:35:23;;;;;;;1.75;0.65;;;10.50;99.90;;;;;;4955998;28;20150;-72
2022/08/15 11:37:53;;;;;;;1.02;0.80;;;10.50;99.90;;;;;;4954966;29;20526;-73
2022/08/15 11:40:37;;;;;;;1.02;0.70;;;10.50;99.90;;;;;;4955465;28;20484;-74
2022/08/15 11:43:07;;;;;;;1.73;0.80;;;10.50;99.90;;;;;;4955981;28;20027;-72
2022/08/15 11:45:41;;;;;;;0.70;0.70;;;10.50;99.90;;;;;;4955272;28;20038;-74
2022/08/15 11:48:17;;;;;;;0.70;0.70;;;10.40;99.90;;;;;;4955781;28;20054;-73
2022/08/15 11:51:16;;;;;;;1.38;0.65;;;10.40;99.90;;;;;;4955809;28;20020;-73
2022/08/15 11:54:15;;;;;;;1.55;0.80;;;10.30;99.90;;;;;;4945043;29;20118;-73
2022/08/15 11:56:47;;;;;;;3.53;0.95;;;10.30;99.90;;;;;;4954028;29;20082;-73
2022/08/15 11:59:21;;;;;;;1.42;0.80;;;10.20;99.90;;;;;;4954061;29;20554;-73
2022/08/15 12:02:12;;;;;;;1.40;0.80;;;10.20;99.90;;;;;;4954297;29;20027;-74
2022/08/15 12:04:46;;;;;;;2.15;0.80;;;10.20;99.90;;;;;;4955354;28;20031;-72
2022/08/15 12:07:20;;;;;;;0.98;0.52;;;10.20;99.90;;;;;;4955344;29;20082;-72
2022/08/15 12:10:00;;;;;;;1.02;0.70;;;10.20;99.90;;;;;;4953780;29;20369;-72
2022/08/15 12:12:34;;;;;;;0.52;0.52;;;10.30;99.90;;;;;;4955254;28;20054;-74
2022/08/15 12:15:36;;;;;;;1.08;0.75;;;10.30;99.90;;;;;;4955212;28;20035;-72
2022/08/15 12:18:22;;;;;;;0.95;0.60;;;10.40;99.90;;;;;;4951597;29;20499;-73
2022/08/15 12:21:03;;;;;;;0.88;0.50;;;10.50;99.90;;;;;;4954039;29;20035;-74
2022/08/15 12:23:30;;;;;;;0.50;0.40;;;10.40;99.90;;;;;;4955365;28;20032;-74
2022/08/15 12:26:01;;;;;;;1.35;0.60;;;10.50;99.90;;;;;;4955603;28;20310;-74
2022/08/15 12:28:30;;;;;;;2.00;0.47;;;10.50;99.90;;;;;;4956154;28;20115;-72
2022/08/15 12:31:04;;;;;;;0.93;0.50;;;10.50;99.90;;;;;;4958615;28;20039;-74
2022/08/15 12:33:32;;;;;;;1.67;0.50;;;10.50;99.90;;;;;;4957406;29;20019;-72
2022/08/15 12:36:02;;;;;;;1.52;0.40;;;10.50;99.90;;;;;;4957173;29;20384;-73
2022/08/15 12:38:31;;;;;;;0.50;0.30;;;10.50;99.90;;;;;;4958616;28;20023;-73
2022/08/15 12:41:00;;;;;;;0.70;0.40;;;10.50;99.90;;;;;;4958549;28;20254;-73
2022/08/15 12:43:28;;;;;;;2.10;0.63;;;10.60;99.90;;;;;;4958453;28;20027;-73
2022/08/15 12:45:56;;;;;;;1.10;0.40;;;10.50;99.90;;;;;;4958527;28;20090;-73
2022/08/15 12:48:26;;;;;;;0.73;0.40;;;10.50;99.90;;;;;;4957092;29;20126;-72
2022/08/15 12:50:54;;;;;;;0.85;0.40;;;10.60;99.90;;;;;;4958583;28;20549;-73
2022/08/15 12:53:22;;;;;;;0.65;0.30;;;10.60;99.90;;;;;;4958615;28;20030;-73
2022/08/15 12:55:51;;;;;;;0.77;0.47;;;10.60;99.90;;;;;;4957245;29;20078;-73
2022/08/15 12:58:19;;;;;;;1.30;0.40;;;10.70;99.90;;;;;;4956975;29;20054;-75
2022/08/15 13:00:50;;;;;;;1.33;0.40;;;10.70;99.90;;;;;;4958333;28;20035;-74
2022/08/15 13:03:21;;;;;;;0.40;0.30;;;10.70;99.90;;;;;;4958168;28;20027;-73
2022/08/15 13:06:02;;;;;;;0.43;0.30;;;11.00;99.90;;;;;;4957017;29;20054;-73
2022/08/15 13:08:29;;;;;;;;;;;10.70;99.90;;;;;;4957361;29;20443;-74
2022/08/15 13:10:56;;;;;;;2.83;0.40;;;10.80;99.90;;;;;;4940840;29;20001;-74
2022/08/15 13:13:24;;;;;;;1.08;0.57;;;10.80;99.90;;;;;;4956729;29;20019;-74
2022/08/15 13:15:51;;;;;;;1.08;0.47;;;10.70;99.90;;;;;;4956812;29;20031;-74
2022/08/15 13:18:24;;;;;;;0.68;0.40;;;10.70;99.90;;;;;;4956793;29;20027;-74
2022/08/15 13:23:39;;;;;;;0.63;0.63;;;10.50;99.90;;;;;;4958261;29;20065;-73
2022/08/15 13:26:13;;;;;;;1.25;0.63;;;10.50;99.90;;;;;;4957579;28;20063;-74
2022/08/15 13:28:43;;;;;;;1.15;0.70;;;10.50;99.90;;;;;;4940471;29;20058;-74
2022/08/15 13:31:13;;;;;;;2.22;0.70;;;10.40;99.90;;;;;;4957628;28;20412;-74
2022/08/15 13:33:41;;;;;;;0.43;0.43;;;10.40;99.90;;;;;;4957803;28;20023;-74
2022/08/15 13:36:12;;;;;;;0.60;0.55;;;10.40;99.90;;;;;;4957661;29;20026;-73
2022/08/15 13:38:42;;;;;;;1.23;0.45;;;10.40;99.90;;;;;;4956079;28;20027;-73
2022/08/15 13:41:10;;;;;;;0.95;0.50;;;10.50;99.90;;;;;;4956205;29;20059;-74
2022/08/15 13:43:41;;;;;;;1.35;0.50;;;10.60;99.90;;;;;;4956271;29;20055;-73
2022/08/15 13:46:10;;;;;;;0.70;0.50;;;10.60;99.90;;;;;;4957461;28;20535;-74
2022/08/15 13:48:45;;;;;;;0.65;0.40;;;10.60;99.90;;;;;;4955904;29;20030;-74
2022/08/15 13:51:25;;;;;;;0.82;0.50;;;10.70;99.90;;;;;;4957507;28;20027;-74
2022/08/15 13:53:54;;;;;;;0.88;0.45;;;10.80;99.90;;;;;;4956487;29;20091;-74
2022/08/15 13:56:21;;;;;;;0.55;0.30;;;10.80;99.90;;;;;;4956098;29;20086;-73
2022/08/15 13:58:49;;;;;;;0.40;0.25;;;10.80;99.90;;;;;;4957376;28;20086;-74
2022/08/15 14:01:23;;;;;;;0.82;0.52;;;10.80;99.90;;;;;;4957197;28;20033;-75
2022/08/15 14:03:58;;;;;;;0.70;0.40;;;10.90;99.90;;;;;;4957531;28;20392;-74
2022/08/15 14:06:27;;;;;;;1.00;0.43;;;10.90;99.90;;;;;;4957409;28;20031;-75
2022/08/15 14:08:55;;;;;;;1.05;0.40;;;10.90;99.90;;;;;;4957199;28;20051;-74
2022/08/15 14:11:24;;;;;;;1.02;0.40;;;10.90;99.90;;;;;;4957138;28;20450;-73
2022/08/15 14:13:51;;;;;;;0.50;0.40;;;10.90;99.90;;;;;;4955794;29;20451;-74
2022/08/15 14:16:19;;;;;;;0.45;0.45;;;11.00;99.90;;;;;;4957476;28;20027;-74
2022/08/15 14:18:47;;;;;;;1.00;0.50;;;11.00;99.90;;;;;;4955651;29;20031;-73
2022/08/15 14:21:15;;;;;;;1.13;0.65;;;11.00;99.90;;;;;;4955621;29;20027;-74
2022/08/15 14:23:43;;;;;;;0.73;0.40;;;11.10;99.90;;;;;;4956990;28;20423;-74
2022/08/15 14:26:11;;;;;;;0.75;0.32;;;11.10;99.90;;;;;;4955771;29;20024;-73
2022/08/15 14:28:38;;;;;;;0.82;0.50;;;11.00;99.90;;;;;;4955508;29;20502;-73
2022/08/15 14:31:06;;;;;;;1.88;0.50;;;11.10;99.90;;;;;;4955368;28;20054;-73
2022/08/15 14:33:34;;;;;;;1.38;0.73;;;11.00;99.90;;;;;;4956762;28;20030;-74
2022/08/15 14:36:01;;;;;;;0.73;0.40;;;11.10;99.90;;;;;;4955192;29;20027;-72
2022/08/15 14:38:31;;;;;;;1.13;0.50;;;11.00;99.90;;;;;;4955144;29;20032;-73
2022/08/15 14:41:01;;;;;;;0.85;0.30;;;11.00;99.90;;;;;;4956630;28;20034;-72
2022/08/15 14:43:29;;;;;;;0.60;0.40;;;11.00;99.90;;;;;;4956288;28;20031;-73
2022/08/15 14:46:02;;;;;;;0.57;0.40;;;11.00;99.90;;;;;;4956271;28;20028;-73
2022/08/15 14:48:33;;;;;;;0.57;0.30;;;11.00;99.90;;;;;;4955006;29;20030;-73
2022/08/15 14:51:00;;;;;;;;;;;11.00;99.90;;;;;;4954536;28;20109;-74
2022/08/15 14:53:30;;;;;;;1.27;0.50;;;10.90;99.90;;;;;;4955313;29;19910;-73
2022/08/15 14:55:58;;;;;;;0.68;0.38;;;10.90;99.90;;;;;;4954734;29;20133;-73
2022/08/15 14:58:27;;;;;;;1.33;0.47;;;10.80;99.90;;;;;;4956074;28;20459;-73
2022/08/15 15:00:57;;;;;;;0.40;0.35;;;10.80;99.90;;;;;;4954713;29;20114;-73
2022/08/15 15:03:29;;;;;;;1.38;0.30;;;10.80;99.90;;;;;;4955973;28;20357;-73
2022/08/15 15:05:58;;;;;;;1.20;0.30;;;10.70;99.90;;;;;;4954752;29;20082;-73
2022/08/15 15:08:28;;;;;;;1.15;0.30;;;10.60;99.90;;;;;;4955738;28;20034;-73
2022/08/15 15:10:57;;;;;;;0.20;0.20;;;10.50;99.90;;;;;;4956081;28;20428;-72
2022/08/15 15:13:25;;;;;;;0.40;0.30;;;10.40;99.90;;;;;;4954633;29;20392;-72
2022/08/15 15:15:54;;;;;;;1.02;0.20;;;10.30;99.90;;;;;;4955742;28;20016;-73
2022/08/15 15:18:26;;;;;;;0.95;0.40;;;10.20;99.90;;;;;;4956313;28;20102;-74
2022/08/15 15:20:57;;;;;;;0.30;0.28;;;10.20;99.90;;;;;;4954701;29;20023;-73
2022/08/15 15:23:26;;;;;;;0.20;0.20;;;10.10;99.90;;;;;;4954599;29;20077;-72
2022/08/15 15:25:54;;;;;;;0.88;0.22;;;10.00;99.90;;;;;;4955845;28;20031;-74
2022/08/15 15:28:25;;;;;;;0.50;0.20;;;9.80;99.90;;;;;;4954581;29;20420;-75
2022/08/15 15:30:54;;;;;;;0.60;0.30;;;9.70;99.90;;;;;;4954335;28;20059;-74
2022/08/15 15:33:22;;;;;;;0.30;0.30;;;9.60;99.90;;;;;;4954673;29;20031;-72
2022/08/15 15:35:49;;;;;;;1.10;0.35;;;9.60;99.90;;;;;;4954117;29;20038;-72
2022/08/15 15:38:17;;;;;;;0.40;0.25;;;9.60;99.90;;;;;;4955901;28;20077;-74
2022/08/15 15:40:45;;;;;;;0.52;0.30;;;9.50;99.90;;;;;;4954879;29;20031;-72
2022/08/15 15:43:12;;;;;;;0.45;0.30;;;9.50;99.90;;;;;;4938142;29;20028;-72
2022/08/15 15:45:41;;;;;;;0.43;0.35;;;9.50;99.90;;;;;;4954052;29;20071;-72
2022/08/15 15:48:11;;;;;;;1.30;0.30;;;9.50;99.90;;;;;;4954106;29;20023;-73
2022/08/15 15:50:38;;;;;;;0.73;0.20;;;9.60;99.90;;;;;;4954083;29;20029;-72
2022/08/15 15:53:19;;;;;;;0.43;0.32;;;9.60;99.90;;;;;;4954073;29;20031;-72
2022/08/15 15:55:47;;;;;;;0.50;0.20;;;9.60;99.90;;;;;;4956048;28;20023;-73
2022/08/15 15:58:14;;;;;;;0.90;0.30;;;9.50;99.90;;;;;;4954026;29;20039;-73
2022/08/15 16:00:44;;;;;;;0.57;0.40;;;9.50;99.90;;;;;;4953917;29;20082;-72
2022/08/15 16:03:15;;;;;;;1.08;0.30;;;9.50;99.90;;;;;;4957487;28;20490;-71
2022/08/15 16:05:45;;;;;;;;;;;9.50;99.90;;;;;;4959707;28;20027;-73
2022/08/15 16:08:15;;;;;;;0.60;0.40;;;9.40;99.90;;;;;;4959441;28;20339;-73
2022/08/15 16:10:54;;;;;;;0.33;0.30;;;9.30;99.90;;;;;;4959755;28;20027;-72
2022/08/15 16:13:31;;;;;;;1.17;0.47;;;9.30;99.90;;;;;;4959286;28;20749;-72
2022/08/15 16:16:16;;;;;;;0.50;0.30;;;9.30;99.90;;;;;;4959307;28;20522;-72
2022/08/15 16:18:55;;;;;;;1.08;0.30;;;9.20;99.90;;;;;;4959169;28;20027;-74
2022/08/15 16:21:40;;;;;;;0.80;0.40;;;9.20;99.90;;;;;;4959302;28;20027;-73
2022/08/15 16:24:15;;;;;;;0.60;0.20;;;9.10;99.90;;;;;;4958962;28;20028;-73
2022/08/15 16:26:54;;;;;;;0.52;0.30;;;9.00;99.90;;;;;;4957757;29;20150;-73
2022/08/15 16:29:36;;;;;;;0.50;0.30;;;9.00;99.90;;;;;;4959157;28;20038;-74
2022/08/15 16:32:15;;;;;;;1.85;0.40;;;8.90;99.90;;;;;;4959374;28;20019;-74
2022/08/15 16:34:52;;;;;;;1.02;0.65;;;8.90;99.90;;;;;;4958835;28;20110;-73
2022/08/15 16:37:29;;;;;;;0.65;0.40;;;8.90;99.90;;;;;;4958964;28;20024;-74
2022/08/15 16:40:09;;;;;;;0.60;0.43;;;8.90;99.90;;;;;;4958654;28;20034;-73
2022/08/15 16:42:52;;;;;;;0.85;0.43;;;8.80;99.90;;;;;;4958968;28;20058;-74
2022/08/15 16:45:59;;;;;;;0.60;0.32;;;8.70;99.90;;;;;;4958888;28;20027;-73
2022/08/15 16:48:44;;;;;;;0.60;0.40;;;8.70;99.90;;;;;;4925915;29;20039;-71
2022/08/15 16:51:19;;;;;;;0.80;0.40;;;8.60;99.90;;;;;;4959090;28;20155;-73
2022/08/15 16:53:59;;;;;;;0.32;0.20;;;8.60;99.90;;;;;;4957103;29;20062;-72
2022/08/15 16:56:49;;;;;;;0.47;0.38;;;8.70;99.90;;;;;;4958415;28;20031;-72
2022/08/15 16:59:47;;;;;;;0.40;0.40;;;8.70;99.90;;;;;;4928635;28;20404;-73
2022/08/15 17:02:26;;;;;;;0.40;0.30;;;8.70;99.90;;;;;;4958495;28;20566;-73
2022/08/15 17:05:05;;;;;;;0.95;0.32;;;8.70;99.90;;;;;;4958472;28;20055;-72
2022/08/15 17:07:47;;;;;;;0.35;0.30;;;8.70;99.90;;;;;;4958381;28;20107;-73
2022/08/15 17:10:40;;;;;;;0.28;0.25;;;8.60;99.90;;;;;;4958147;28;20027;-72
2022/08/15 17:13:18;;;;;;;0.82;0.60;;;8.60;99.90;;;;;;4957955;28;20421;-73
2022/08/15 17:16:28;;;;;;;2.00;0.40;;;8.50;99.90;;;;;;4957315;28;20102;-72
2022/08/15 17:19:26;;;;;;;0.80;0.30;;;8.50;99.90;;;;;;4958486;28;20023;-72
2022/08/15 17:22:22;;;;;;;0.65;0.30;;;8.40;99.90;;;;;;4958510;28;20043;-73
2022/08/15 17:24:59;;;;;;;0.80;0.45;;;8.40;99.90;;;;;;4945690;28;20040;-74
2022/08/15 17:27:26;;;;;;;0.75;0.40;;;8.30;99.90;;;;;;4957806;28;20554;-73
2022/08/15 17:30:10;;;;;;;0.70;0.28;;;8.30;99.90;;;;;;4956237;28;20503;-73
2022/08/15 17:32:44;;;;;;;0.52;0.30;;;8.30;99.90;;;;;;4958163;28;20106;-73
2022/08/15 17:35:13;;;;;;;1.00;0.30;;;8.30;99.90;;;;;;4956459;29;20042;-72
2022/08/15 17:37:42;;;;;;;0.60;0.30;;;8.30;99.90;;;;;;4958146;28;20029;-72
2022/08/15 17:40:23;;;;;;;1.05;0.38;;;8.30;99.90;;;;;;4957710;28;20027;-74
2022/08/15 17:42:52;;;;;;;1.58;0.45;;;8.30;99.90;;;;;;4957671;28;20074;-72
2022/08/15 17:45:24;;;;;;;0.52;0.30;;;8.30;99.90;;;;;;4957479;28;20020;-73
2022/08/15 17:48:17;;;;;;;1.17;0.38;;;8.20;99.90;;;;;;4956205;29;20372;-73
2022/08/15 17:50:52;;;;;;;0.80;0.40;;;8.30;99.90;;;;;;4957459;28;20102;-73
2022/08/15 17:53:57;;;;;;;1.08;0.35;;;8.30;99.90;;;;;;4957778;28;20467;-74
2022/08/15 17:56:35;;;;;;;1.00;0.30;;;8.20;99.90;;;;;;4954409;29;20059;-74
2022/08/15 17:59:14;;;;;;;0.30;0.30;;;8.20;99.90;;;;;;4955957;29;20038;-73
2022/08/15 18:01:42;;;;;;;3.17;0.60;;;8.20;99.90;;;;;;4957325;28;20027;-73
2022/08/15 18:04:11;;;;;;;0.55;0.35;;;8.20;99.90;;;;;;4956074;29;20028;-73
2022/08/15 18:06:43;;;;;;;0.50;0.35;;;8.10;99.90;;;;;;4957111;28;20030;-74
2022/08/15 18:09:17;;;;;;;0.30;0.25;;;8.10;99.90;;;;;;4955823;29;20027;-74
2022/08/15 18:11:45;;;;;;;0.38;0.30;;;8.00;99.90;;;;;;4957739;28;20109;-73
2022/08/15 18:14:14;;;;;;;0.57;0.40;;;8.00;99.90;;;;;;4955647;29;20027;-73
2022/08/15 18:17:03;;;;;;;0.55;0.40;;;7.90;99.90;;;;;;4957063;28;20054;-72
2022/08/15 18:19:32;;;;;;;0.55;0.45;;;7.90;99.90;;;;;;4955856;29;20023;-73
2022/08/15 18:22:16;;;;;;;1.70;0.80;;;7.90;99.90;;;;;;4955745;29;20097;-74
2022/08/15 18:24:49;;;;;;;0.75;0.30;;;7.80;99.90;;;;;;4956901;28;20059;-72
2022/08/15 18:27:28;;;;;;;0.60;0.43;;;7.80;99.90;;;;;;4957204;28;20027;-73
2022/08/15 18:30:07;;;;;;;0.63;0.40;;;7.80;99.90;;;;;;4971246;28;20047;-73
2022/08/15 18:32:46;;;;;;;0.60;0.40;;;7.70;99.90;;;;;;4956653;28;20023;-72
2022/08/15 18:35:25;;;;;;;0.95;0.50;;;7.70;99.90;;;;;;4956833;28;20427;-72
2022/08/15 18:38:18;;;;;;;0.93;0.55;;;7.70;99.90;;;;;;4957354;28;20022;-72
2022/08/15 18:41:09;;;;;;;0.57;0.40;;;7.70;99.90;;;;;;4956957;28;20035;-72
2022/08/15 18:43:57;;;;;;;0.68;0.40;;;7.70;99.90;;;;;;4955182;29;20027;-71
2022/08/15 18:46:37;;;;;;;0.82;0.77;;;7.70;99.90;;;;;;4956121;28;20062;-73
2022/08/15 18:49:15;;;;;;;0.70;0.40;;;7.70;99.90;;;;;;4956410;28;20031;-72
2022/08/15 18:51:48;;;;;;;0.40;0.32;;;7.70;99.90;;;;;;4955110;29;20031;-72
2022/08/15 18:54:32;;;;;;;0.45;0.40;;;7.70;99.90;;;;;;4954990;29;20031;-72
2022/08/15 18:57:04;;;;;;;0.52;0.40;;;7.70;99.90;;;;;;4956339;28;20027;-73
2022/08/15 18:59:51;;;;;;;0.80;0.50;;;7.70;99.90;;;;;;4956247;28;20031;-72
2022/08/15 19:02:24;;;;;;;0.60;0.38;;;7.70;99.90;;;;;;4954885;29;20032;-72
2022/08/15 19:05:08;;;;;;;0.50;0.40;;;7.70;99.90;;;;;;4956040;28;20035;-73
2022/08/15 19:08:09;;;;;;;0.95;0.45;;;7.80;99.90;;;;;;4956285;28;20029;-72
2022/08/15 19:10:44;;;;;;;1.67;0.52;;;7.80;99.90;;;;;;4956115;28;20019;-73
2022/08/15 19:13:28;;;;;;;0.50;0.40;;;7.90;99.90;;;;;;4954692;29;20432;-73
2022/08/15 19:16:04;;;;;;;1.50;0.60;;;7.90;99.90;;;;;;4955933;28;20043;-74
2022/08/15 19:18:36;;;;;;;1.05;0.30;;;7.90;99.90;;;;;;4955955;28;20019;-72
2022/08/15 19:21:04;;;;;;;0.50;0.50;;;7.90;99.90;;;;;;4956081;28;20027;-73
2022/08/15 19:23:32;;;;;;;1.35;0.40;;;7.90;99.90;;;;;;4955735;28;20395;-73
2022/08/15 19:26:14;;;;;;;1.55;0.30;;;7.90;99.90;;;;;;4954499;29;20050;-73
2022/08/15 19:29:02;;;;;;;0.32;0.32;;;7.80;99.90;;;;;;4954183;29;20023;-73
2022/08/15 19:31:33;;;;;;;0.80;0.40;;;7.70;99.90;;;;;;4955642;29;20058;-74
2022/08/15 19:34:17;;;;;;;0.40;0.40;;;7.70;99.90;;;;;;4956382;28;20054;-73
2022/08/15 19:37:01;;;;;;;1.25;0.47;;;7.60;99.90;;;;;;4955569;28;20102;-73
2022/08/15 19:39:39;;;;;;;0.80;0.40;;;7.60;99.90;;;;;;4955658;28;20106;-73
2022/08/15 19:42:38;;;;;;;0.60;0.43;;;7.50;99.90;;;;;;4956042;28;20364;-72
2022/08/15 19:45:47;;;;;;;1.02;0.40;;;7.50;99.90;;;;;;4955542;28;20027;-74
2022/08/15 19:48:52;;;;;;;1.70;0.50;;;7.40;99.90;;;;;;4896596;29;20033;-73
2022/08/15 19:51:28;;;;;;;0.98;0.50;;;7.40;99.90;;;;;;4880520;29;20047;-73
2022/08/15 19:54:13;;;;;;;1.90;0.70;;;7.40;99.90;;;;;;4941371;29;20064;-73
2022/08/15 19:57:02;;;;;;;1.10;0.50;;;7.30;99.90;;;;;;4955846;29;20411;-73
2022/08/15 19:59:48;;;;;;;1.25;0.65;;;7.30;99.90;;;;;;4955205;28;20078;-73
2022/08/15 20:02:56;;;;;;;2.17;0.85;;;7.20;99.90;;;;;;4954054;29;20031;-73
2022/08/15 20:05:32;;;;;;;1.50;1.00;;;7.20;99.90;;;;;;4955264;28;20035;-73
2022/08/15 20:08:09;;;;;;;2.33;0.80;;;7.20;99.90;;;;;;4955529;28;20104;-74
2022/08/15 20:10:54;;;;;;;2.05;1.10;;;7.20;99.90;;;;;;4954045;29;20563;-73
2022/08/15 20:13:25;;;;;;;1.42;0.82;;;7.20;99.90;;;;;;4955166;28;20027;-73
2022/08/15 20:16:05;;;;;;;0.68;0.60;;;7.20;99.90;;;;;;4955087;28;20023;-73
2022/08/15 20:18:47;;;;;;;1.73;0.85;;;7.20;99.90;;;;;;4954181;29;20118;-73